< Typhoon 199006 1990 Season Typhoon 199008 >
Typhoon 199007 (ROBYN)
General InformationTrack Information on Google MapsDetailed Wind InformationList of All Images || Disaster Info.ResourceGoogle EarthGE AnimationAtom FeedGeoJSON
Detalied Best Track (Time Zone = UTC)
Year Month Day Hour Lat. Long. Pressure (hPa) Wind (kt) Class Image Chart
1990 7 4 18 11.0 141.0 1004 0 2 Image Chart
1990 7 5 00 11.0 139.0 1002 0 2 Image Chart
1990 7 5 06 11.0 137.5 1002 0 2 Image Chart
1990 7 5 12 11.0 136.0 1002 0 2 Image Chart
1990 7 5 18 11.5 135.0 1000 0 2 Image Chart
1990 7 6 00 12.0 134.0 1000 0 2 Image Chart
1990 7 6 06 12.5 133.0 1000 0 2 Image Chart
1990 7 6 12 13.0 132.0 1000 0 2 Image Chart
1990 7 6 18 13.5 131.0 998 0 2 Image Chart
1990 7 7 00 14.0 130.0 998 0 2 Image Chart
1990 7 7 06 14.5 129.5 998 0 2 Image Chart
1990 7 7 12 15.5 129.0 998 0 2 Image Chart
1990 7 7 18 16.0 128.5 998 0 2 Image Chart
1990 7 8 00 17.0 128.0 998 0 2 Image Chart
1990 7 8 03 17.7 127.4 996 35 3 Image Chart
1990 7 8 06 18.5 127.2 996 35 3 Image Chart
1990 7 8 12 19.3 126.7 996 35 3 Image Chart
1990 7 8 18 20.1 126.4 994 40 3 Image Chart
1990 7 9 00 21.2 125.8 994 40 3 Image Chart
1990 7 9 06 22.4 125.4 992 45 3 Image Chart
1990 7 9 12 23.5 124.8 992 45 3 Image Chart
1990 7 9 18 24.6 124.5 992 45 3 Image Chart
1990 7 10 00 26.1 124.2 992 45 3 Image Chart
1990 7 10 06 27.5 124.2 992 45 3 Image Chart
1990 7 10 12 28.7 124.2 992 40 3 Image Chart
1990 7 10 18 30.0 124.5 992 40 3 Image Chart
1990 7 11 00 31.5 125.2 992 40 3 Image Chart
1990 7 11 06 33.0 126.0 992 40 3 Image Chart
1990 7 11 12 34.1 126.6 992 40 3 Image Chart
1990 7 11 18 34.6 128.1 992 35 3 Image Chart
1990 7 12 00 35.5 130.0 992 0 2 Image Chart
1990 7 12 06 36.0 131.5 992 0 2 Image Chart
1990 7 12 12 38.0 133.0 992 0 6 Image Chart
1990 7 12 18 39.0 133.0 992 0 6 Image Chart
1990 7 13 00 40.0 133.0 992 0 6 Image Chart
1990 7 13 06 40.0 133.0 994 0 6 Image Chart
1990 7 13 12 40.0 133.0 996 0 6 Image Chart
1990 7 13 18 41.0 133.0 1000 0 6 Image Chart
1990 7 14 00 41.0 133.0 1002 0 6 Image Chart
1990 7 14 06 42.0 133.0 1004 0 6 Image Chart
Japan Meteorological Agency Best Track Data | Correction Date : 1992-10-21
< Typhoon 199006 1990 Season Typhoon 199008 >

Help